Pagrindinis puslapis
METAR-TAF:

METAR-TAF

Oro uostai :

Rio Brankas, Akrė, Brazilija

platuma: 10-00S, ilguma: 067-48W, Aukštis: 142 m

Dabartinis oras

Ataskaita buvo paskelbta 36 minutes, ne 21:00 UTC
Vėjas 3 kt iš Vakarų/Pietvakarių
Temperatūra 28°C
Drėgmė 74%
Slėgis 1011 hPa
Matomumas 10 km arba daugiau
Mažai debesys ne aukštis 3500 ft, aukštai iškilę kamuoliniai debesys.

METAR: SBRB 302100Z 24003KT 9999 FEW035TCU 28/23 Q1011

Laikas: 16:36 (21:36 UTC)

Prognozė

Ataskaita buvo paskelbta 6 valandos ir 36 minutes, ne 15:00 UTC
Prognozė galioja nuo 30 metu 18 UTC su 31 metu 06 UTC
Vėjas 5 kt iš Šiaurės Vakarų
Matomumas 10 km arba daugiau
Išsisklaidę debesys ne aukštis 3500 ft
Tapsmas
nuo 30 metu 21 UTC su 30 metu 23 UTC
Vėjas kt iš Šiaurės
Matomumas 10 km arba daugiau
nėra debesų žemiau 1500 m ir nėra kamuolinių lietaus debesų

TAF: SBRB 301500Z 3018/3106 31005KT 9999 SCT035 TX30/3018Z TN21/3106Z BECMG 3021/3023 00000KT CAVOK RMK PEB

Orai ataskaitas ir orų prognozės (METAR, TAF).

turimą stotys yra geltonos ir raudonos taškus žemėlapyje.

Perkelti pele per norėdami pamatyti stoties vardą.

Tada spustelėkite, norėdami matyti oro stebėjimo ir prognozės.

Norėdami pakeisti žemėlapį: spustelėkite ant žalios mygtukų su juodo kryžiaus žemyn,; žalią mygtuką su brūkšneliu, jei norite nutolinti; arba žalių rodyklių gretimoms žemėlapius.


METAR-TAF: